createdAt,value
2022-08-03T00:01:43.119Z,7.40
2022-08-03T00:04:11.303Z,8.32
2022-08-03T00:06:39.133Z,7.90
2022-08-03T00:09:08.155Z,7.40
2022-08-03T00:11:37.161Z,7.88
2022-08-03T00:14:07.984Z,7.90
2022-08-03T00:16:36.106Z,6.75
2022-08-03T00:19:04.378Z,7.78
2022-08-03T00:21:31.834Z,7.25
2022-08-03T00:23:59.107Z,7.88
2022-08-03T00:26:26.351Z,8.40
2022-08-03T00:28:53.854Z,9.00
2022-08-03T00:31:27.759Z,6.93
2022-08-03T00:34:08.570Z,8.38
2022-08-03T00:36:35.791Z,7.90
2022-08-03T00:39:03.107Z,7.43
2022-08-03T00:41:30.630Z,8.82
2022-08-03T00:43:57.851Z,8.45
2022-08-03T00:46:25.067Z,10.05
2022-08-03T00:48:53.446Z,8.57
2022-08-03T00:51:22.355Z,7.97
2022-08-03T00:53:51.039Z,8.68
2022-08-03T00:56:18.909Z,9.13
2022-08-03T00:58:47.585Z,8.45
2022-08-03T01:01:15.407Z,6.97
2022-08-03T01:03:43.150Z,8.68
2022-08-03T01:06:23.147Z,13.90
2022-08-03T01:09:04.717Z,11.85
2022-08-03T01:11:59.819Z,9.80
2022-08-03T01:14:46.041Z,9.38
2022-08-03T01:17:49.144Z,8.35
2022-08-03T01:20:20.928Z,8.63
2022-08-03T01:23:28.991Z,8.00
2022-08-03T01:26:20.672Z,7.63
2022-08-03T01:29:37.992Z,7.07
2022-08-03T01:33:02.785Z,8.55
2022-08-03T01:35:29.409Z,9.10
2022-08-03T01:38:04.765Z,8.77
2022-08-03T01:40:39.606Z,9.18
2022-08-03T01:43:12.899Z,11.05
2022-08-03T01:45:44.023Z,10.35
2022-08-03T01:48:17.720Z,8.95
2022-08-03T01:50:47.834Z,8.30
2022-08-03T01:53:17.539Z,9.10
2022-08-03T01:55:54.167Z,8.18
2022-08-03T01:58:24.669Z,7.63
2022-08-03T02:00:58.279Z,7.10
2022-08-03T02:03:28.977Z,10.20
2022-08-03T02:07:00.215Z,12.88
2022-08-03T02:08:49.390Z,17.52
2022-08-03T02:11:17.163Z,13.82
2022-08-03T02:13:47.262Z,13.65
2022-08-03T02:16:15.015Z,13.77
2022-08-03T02:18:43.414Z,13.23
2022-08-03T02:21:12.249Z,12.25
2022-08-03T02:24:00.042Z,16.88
2022-08-03T02:26:31.013Z,19.95
2022-08-03T02:29:19.051Z,18.92
2022-08-03T02:31:49.352Z,30.50
2022-08-03T02:34:21.189Z,23.05
2022-08-03T02:36:53.800Z,25.52
2022-08-03T02:39:26.395Z,19.67
2022-08-03T02:42:02.319Z,21.27
2022-08-03T02:44:33.709Z,15.82
2022-08-03T02:47:11.022Z,18.65
2022-08-03T02:49:51.472Z,18.15
2022-08-03T02:52:25.530Z,22.50
2022-08-03T02:54:57.848Z,18.00
2022-08-03T02:57:29.933Z,17.77
2022-08-03T03:00:00.179Z,17.48
2022-08-03T03:02:30.062Z,16.90
2022-08-03T03:05:52.448Z,15.52
2022-08-03T03:07:52.061Z,15.07
2022-08-03T03:10:24.938Z,16.92
2022-08-03T03:12:58.539Z,19.33
2022-08-03T03:15:29.207Z,25.55
2022-08-03T03:17:58.206Z,20.52
2022-08-03T03:20:30.186Z,18.05
2022-08-03T03:23:02.741Z,17.38
2022-08-03T03:25:34.463Z,21.40
2022-08-03T03:28:03.043Z,22.58
2022-08-03T03:30:30.956Z,22.55
2022-08-03T03:32:59.676Z,19.45
2022-08-03T03:35:28.303Z,21.25
2022-08-03T03:37:56.769Z,21.15
2022-08-03T03:40:25.030Z,18.40
2022-08-03T03:42:52.649Z,20.08
2022-08-03T03:45:21.803Z,20.85
2022-08-03T03:47:49.598Z,24.23
2022-08-03T03:50:19.542Z,19.25
2022-08-03T03:52:46.991Z,17.33
2022-08-03T03:55:19.341Z,15.27
2022-08-03T03:57:46.743Z,13.07
2022-08-03T04:00:16.924Z,14.82
2022-08-03T04:02:45.958Z,13.80
2022-08-03T04:05:34.201Z,15.27
2022-08-03T04:08:25.272Z,14.88
2022-08-03T04:11:29.368Z,14.80
2022-08-03T04:14:13.315Z,12.93
2022-08-03T04:16:49.205Z,12.57
2022-08-03T04:19:26.978Z,10.90
2022-08-03T04:22:00.944Z,12.85
2022-08-03T04:24:48.325Z,15.10
2022-08-03T04:27:22.017Z,14.85
2022-08-03T04:29:55.085Z,18.70
2022-08-03T04:32:28.728Z,14.82
2022-08-03T04:34:56.534Z,11.05
2022-08-03T04:37:40.158Z,9.63
2022-08-03T04:40:13.777Z,10.63
2022-08-03T04:42:43.174Z,12.32
2022-08-03T04:45:15.067Z,11.07
2022-08-03T04:47:44.592Z,13.77
2022-08-03T04:50:15.023Z,12.48
2022-08-03T04:52:45.269Z,16.02
2022-08-03T04:55:12.493Z,27.23
2022-08-03T04:57:39.730Z,22.60
2022-08-03T05:00:08.045Z,19.10
2022-08-03T05:02:35.546Z,17.98
2022-08-03T05:05:09.503Z,19.75
2022-08-03T05:07:39.215Z,17.55
2022-08-03T05:10:14.795Z,16.52
2022-08-03T05:12:45.892Z,16.55
2022-08-03T05:15:13.675Z,14.23
2022-08-03T05:17:41.379Z,14.30
2022-08-03T05:20:10.117Z,16.75
2022-08-03T05:22:37.478Z,17.23
2022-08-03T05:25:05.336Z,14.90
2022-08-03T05:27:32.738Z,14.55
2022-08-03T05:30:30.671Z,14.35
2022-08-03T05:32:47.485Z,16.42
2022-08-03T05:36:00.784Z,18.25
2022-08-03T05:38:03.533Z,34.58
2022-08-03T05:40:32.006Z,27.77
2022-08-03T05:43:00.109Z,21.95
2022-08-03T05:45:28.522Z,24.50
2022-08-03T05:47:56.499Z,18.35
2022-08-03T05:50:24.055Z,21.55
2022-08-03T05:52:51.534Z,20.02
2022-08-03T05:55:19.175Z,19.58
2022-08-03T05:57:47.742Z,15.35
2022-08-03T06:00:17.509Z,15.40
2022-08-03T06:02:46.235Z,15.35
2022-08-03T06:05:13.616Z,15.30
2022-08-03T06:07:41.137Z,17.08
2022-08-03T06:10:37.355Z,15.60
2022-08-03T06:12:56.716Z,13.15
2022-08-03T06:15:24.006Z,16.92
2022-08-03T06:18:01.453Z,15.50
2022-08-03T06:20:30.362Z,15.85
2022-08-03T06:23:00.419Z,11.50
2022-08-03T06:25:29.389Z,10.85
2022-08-03T06:27:57.142Z,11.70
2022-08-03T06:30:24.783Z,11.20
2022-08-03T06:32:52.532Z,12.02
2022-08-03T06:35:20.828Z,12.80
2022-08-03T06:37:51.880Z,25.45
2022-08-03T06:40:29.222Z,23.58
2022-08-03T06:42:58.270Z,22.05
2022-08-03T06:45:25.933Z,19.25
2022-08-03T06:48:11.960Z,21.05
2022-08-03T06:50:41.772Z,19.17
2022-08-03T06:53:15.627Z,16.95
2022-08-03T06:55:53.936Z,16.05
2022-08-03T06:58:22.618Z,16.15
2022-08-03T07:00:50.255Z,13.35
2022-08-03T07:03:17.765Z,12.80
2022-08-03T07:05:48.332Z,11.52
2022-08-03T07:08:15.929Z,12.73
2022-08-03T07:10:44.195Z,11.48
2022-08-03T07:13:11.753Z,10.20
2022-08-03T07:15:55.684Z,9.35
2022-08-03T07:18:29.844Z,9.80
2022-08-03T07:21:00.281Z,9.40
2022-08-03T07:23:27.660Z,10.60
2022-08-03T07:25:54.932Z,9.68
2022-08-03T07:28:22.306Z,10.57
2022-08-03T07:30:49.847Z,11.07
2022-08-03T07:33:17.194Z,10.70
2022-08-03T07:35:44.469Z,10.70
2022-08-03T07:38:11.916Z,8.75
2022-08-03T07:40:44.416Z,12.80
2022-08-03T07:43:13.609Z,11.75
2022-08-03T07:45:40.979Z,10.13
2022-08-03T07:48:12.193Z,8.32
2022-08-03T07:50:41.204Z,7.80
2022-08-03T07:53:08.828Z,9.88
2022-08-03T07:55:36.175Z,9.32
2022-08-03T07:58:12.622Z,9.60
2022-08-03T08:00:40.008Z,9.05
2022-08-03T08:03:08.250Z,10.80
2022-08-03T08:05:35.463Z,12.00
2022-08-03T08:08:04.212Z,9.07
2022-08-03T08:10:33.346Z,7.60
2022-08-03T08:13:01.896Z,13.80
2022-08-03T08:15:30.294Z,9.02
2022-08-03T08:18:01.572Z,7.88
2022-08-03T08:20:34.974Z,7.40
2022-08-03T08:23:19.248Z,7.18
2022-08-03T08:25:56.283Z,7.78
2022-08-03T08:28:32.819Z,8.30
2022-08-03T08:31:02.486Z,6.25
2022-08-03T08:33:42.509Z,8.77
2022-08-03T08:36:18.166Z,6.70
2022-08-03T08:38:45.713Z,6.20
2022-08-03T08:41:15.293Z,6.18
2022-08-03T08:43:43.794Z,7.07
2022-08-03T08:46:22.947Z,5.70
2022-08-03T08:48:52.505Z,5.80
2022-08-03T08:51:22.507Z,6.35
2022-08-03T08:53:54.287Z,6.70
2022-08-03T08:56:26.242Z,5.72
2022-08-03T08:58:59.249Z,5.70
2022-08-03T09:01:27.756Z,6.28
2022-08-03T09:03:55.895Z,6.85
2022-08-03T09:06:24.759Z,6.70
2022-08-03T09:08:52.610Z,5.90
2022-08-03T09:11:57.652Z,5.70
2022-08-03T09:14:37.119Z,4.90
2022-08-03T09:17:05.308Z,5.07
2022-08-03T09:19:34.877Z,5.05
2022-08-03T09:22:16.802Z,4.65
2022-08-03T09:25:27.198Z,5.03
2022-08-03T09:27:54.706Z,4.70
2022-08-03T09:30:34.530Z,4.60
2022-08-03T09:33:11.245Z,4.25
2022-08-03T09:35:57.461Z,3.95
2022-08-03T09:38:28.857Z,3.90
2022-08-03T09:41:00.244Z,3.58
2022-08-03T09:43:28.818Z,3.30
2022-08-03T09:46:07.481Z,3.30
2022-08-03T09:48:36.921Z,3.25
2022-08-03T09:51:12.809Z,2.80
2022-08-03T09:53:58.948Z,3.15
2022-08-03T09:56:41.707Z,6.82
2022-08-03T09:59:11.645Z,5.47
2022-08-03T10:01:41.961Z,3.67
2022-08-03T10:04:15.141Z,3.20
2022-08-03T10:06:44.317Z,2.97
2022-08-03T10:09:17.222Z,3.00
2022-08-03T10:11:47.041Z,2.78
2022-08-03T10:14:23.564Z,3.38
2022-08-03T10:16:50.914Z,3.35
2022-08-03T10:19:18.421Z,2.70
2022-08-03T10:21:57.026Z,3.00
2022-08-03T10:24:29.575Z,2.50
2022-08-03T10:27:08.063Z,2.80
2022-08-03T10:29:41.312Z,2.40
2022-08-03T10:32:22.717Z,2.70
2022-08-03T10:34:59.874Z,4.72
2022-08-03T10:37:34.636Z,9.40
2022-08-03T10:40:04.269Z,4.45
2022-08-03T10:42:32.101Z,2.60
2022-08-03T10:45:18.778Z,2.70
2022-08-03T10:47:49.513Z,2.95
2022-08-03T10:50:18.346Z,2.90
2022-08-03T10:52:55.275Z,2.63
2022-08-03T10:55:59.835Z,2.72
2022-08-03T10:58:37.962Z,6.07
2022-08-03T11:01:58.903Z,2.80
2022-08-03T11:04:30.320Z,2.70
2022-08-03T11:07:16.900Z,3.30
2022-08-03T11:09:51.200Z,3.20
2022-08-03T11:12:30.735Z,3.10
2022-08-03T11:15:05.095Z,3.50
2022-08-03T11:17:46.717Z,13.18
2022-08-03T11:20:52.903Z,5.85
2022-08-03T11:24:03.338Z,11.68
2022-08-03T11:26:29.476Z,5.45
2022-08-03T11:29:32.005Z,6.07
2022-08-03T11:31:59.290Z,4.80
2022-08-03T11:34:26.908Z,4.85
2022-08-03T11:37:22.336Z,5.40
2022-08-03T11:39:54.591Z,5.28
2022-08-03T11:42:24.987Z,4.80
2022-08-03T11:45:00.665Z,5.47
2022-08-03T11:47:30.284Z,5.13
2022-08-03T11:50:02.077Z,7.10
2022-08-03T11:52:38.360Z,9.50
2022-08-03T11:55:11.812Z,7.03
2022-08-03T11:59:01.264Z,5.60
2022-08-03T12:00:32.787Z,5.05
2022-08-03T12:03:11.280Z,5.85
2022-08-03T12:05:41.583Z,5.90
2022-08-03T12:08:41.006Z,6.15
2022-08-03T12:11:11.739Z,7.00
2022-08-03T12:14:45.122Z,7.65
2022-08-03T12:16:31.807Z,7.18
2022-08-03T12:19:06.805Z,6.82
2022-08-03T12:21:34.605Z,7.50
2022-08-03T12:24:05.298Z,7.15
2022-08-03T12:26:58.518Z,7.32
2022-08-03T12:29:27.623Z,6.65
2022-08-03T12:31:55.983Z,7.20
2022-08-03T12:34:23.702Z,7.10
2022-08-03T12:36:56.933Z,7.72
2022-08-03T12:39:26.714Z,7.70
2022-08-03T12:41:56.462Z,7.60
2022-08-03T12:44:35.820Z,7.60
2022-08-03T12:47:06.824Z,8.10
2022-08-03T12:49:48.444Z,7.85
2022-08-03T12:52:18.071Z,7.57
2022-08-03T12:55:00.098Z,8.40
2022-08-03T12:57:42.171Z,8.02
2022-08-03T13:00:21.448Z,7.22
2022-08-03T13:03:38.851Z,8.02
2022-08-03T13:05:57.556Z,7.75
2022-08-03T13:08:26.009Z,8.15
2022-08-03T13:10:53.911Z,6.97
2022-08-03T13:13:39.648Z,7.38
2022-08-03T13:16:07.585Z,8.55
2022-08-03T13:18:34.788Z,10.90
2022-08-03T13:21:02.324Z,8.57
2022-08-03T13:23:30.013Z,7.93
2022-08-03T13:25:57.205Z,7.70
2022-08-03T13:28:24.454Z,8.23
2022-08-03T13:30:51.982Z,7.35
2022-08-03T13:33:19.349Z,9.45
2022-08-03T13:35:46.607Z,7.55
2022-08-03T13:38:15.356Z,8.90
2022-08-03T13:40:44.560Z,7.60
2022-08-03T13:43:13.373Z,8.63
2022-08-03T13:45:40.770Z,7.18
2022-08-03T13:48:08.004Z,8.45
2022-08-03T13:50:37.605Z,8.00
2022-08-03T13:53:08.732Z,9.25
2022-08-03T13:55:36.048Z,8.95
2022-08-03T13:58:07.504Z,7.88
2022-08-03T14:00:35.326Z,12.48
2022-08-03T14:03:12.241Z,8.38
2022-08-03T14:05:43.227Z,8.57
2022-08-03T14:08:11.420Z,8.23
2022-08-03T14:10:42.592Z,8.75
2022-08-03T14:13:16.627Z,7.70
2022-08-03T14:15:50.942Z,7.72
2022-08-03T14:18:29.190Z,8.32
2022-08-03T14:21:06.729Z,8.18
2022-08-03T14:23:37.938Z,7.88
2022-08-03T14:26:09.606Z,8.13
2022-08-03T14:28:37.091Z,8.18
2022-08-03T14:31:08.234Z,7.15
2022-08-03T14:33:42.982Z,8.00
2022-08-03T14:36:10.186Z,7.70
2022-08-03T14:38:37.401Z,11.68
2022-08-03T14:41:05.000Z,8.38
2022-08-03T14:43:34.017Z,8.63
2022-08-03T14:46:01.728Z,7.45
2022-08-03T14:50:29.465Z,9.73
2022-08-03T14:51:16.544Z,8.00
2022-08-03T14:53:44.049Z,7.80
2022-08-03T14:56:11.300Z,7.95
2022-08-03T14:58:38.802Z,9.10
2022-08-03T15:02:06.230Z,8.07
2022-08-03T15:03:54.778Z,7.50
2022-08-03T15:06:22.240Z,7.97
2022-08-03T15:09:06.267Z,8.00
2022-08-03T15:11:37.521Z,7.65
2022-08-03T15:14:09.000Z,7.68
2022-08-03T15:16:38.107Z,8.27
2022-08-03T15:19:59.585Z,6.70
2022-08-03T15:21:53.572Z,6.32
2022-08-03T15:24:21.100Z,7.22
2022-08-03T15:26:48.313Z,7.70
2022-08-03T15:30:06.901Z,10.20
2022-08-03T15:32:09.156Z,8.73
2022-08-03T15:34:36.962Z,12.10
2022-08-03T15:37:16.255Z,9.02
2022-08-03T15:40:00.830Z,8.55
2022-08-03T15:42:30.346Z,7.97
2022-08-03T15:44:57.763Z,8.20
2022-08-03T15:47:25.710Z,8.57
2022-08-03T15:49:55.768Z,8.13
2022-08-03T15:52:23.162Z,7.47
2022-08-03T15:54:50.417Z,8.13
2022-08-03T15:57:17.959Z,7.57
2022-08-03T15:59:45.234Z,7.30
2022-08-03T16:02:12.481Z,8.00
2022-08-03T16:04:39.948Z,7.45
2022-08-03T16:07:07.201Z,7.95
2022-08-03T16:09:43.132Z,7.25
2022-08-03T16:12:16.426Z,7.10
2022-08-03T16:14:53.821Z,6.93
2022-08-03T16:17:22.631Z,7.57
2022-08-03T16:19:54.722Z,9.02
2022-08-03T16:22:24.065Z,7.65
2022-08-03T16:24:53.473Z,8.27
2022-08-03T16:27:55.787Z,7.32
2022-08-03T16:30:12.714Z,12.55
2022-08-03T16:32:40.004Z,9.20
2022-08-03T16:35:08.710Z,8.85
2022-08-03T16:37:38.506Z,7.57
2022-08-03T16:40:17.376Z,8.32
2022-08-03T16:42:47.611Z,7.60
2022-08-03T16:45:15.013Z,7.25
2022-08-03T16:47:42.308Z,7.22
2022-08-03T16:50:15.761Z,8.63
2022-08-03T16:52:47.370Z,7.82
2022-08-03T16:55:18.369Z,7.63
2022-08-03T16:57:58.688Z,7.38
2022-08-03T17:00:33.815Z,8.32
2022-08-03T17:03:18.642Z,8.15
2022-08-03T17:05:49.925Z,9.35
2022-08-03T17:08:18.924Z,7.60
2022-08-03T17:10:53.866Z,7.57
2022-08-03T17:13:22.861Z,8.80
2022-08-03T17:15:58.067Z,7.55
2022-08-03T17:18:37.523Z,7.30
2022-08-03T17:21:11.309Z,6.55
2022-08-03T17:23:50.127Z,6.63
2022-08-03T17:26:22.285Z,7.18
2022-08-03T17:28:58.094Z,7.85
2022-08-03T17:31:31.605Z,7.38
2022-08-03T17:34:04.625Z,8.38
2022-08-03T17:37:03.111Z,10.77
2022-08-03T17:39:42.136Z,9.57
2022-08-03T17:42:30.959Z,8.30
2022-08-03T17:45:03.790Z,7.22
2022-08-03T17:47:42.087Z,8.38
2022-08-03T17:50:24.436Z,11.27
2022-08-03T17:53:15.355Z,9.70
2022-08-03T17:56:44.537Z,7.70
2022-08-03T17:59:57.829Z,17.73
2022-08-03T18:03:11.168Z,10.07
2022-08-03T18:06:10.846Z,7.53
2022-08-03T18:08:51.315Z,6.85
2022-08-03T18:11:35.694Z,7.18
2022-08-03T18:14:23.917Z,10.50
2022-08-03T18:17:03.308Z,7.80
2022-08-03T18:20:02.713Z,8.13
2022-08-03T18:22:27.030Z,8.45
2022-08-03T18:24:56.189Z,7.00
2022-08-03T18:27:25.150Z,8.15
2022-08-03T18:30:15.359Z,8.23
2022-08-03T18:33:01.125Z,9.70
2022-08-03T18:35:53.074Z,9.13
2022-08-03T18:38:23.784Z,8.02
2022-08-03T18:40:51.810Z,7.47
2022-08-03T18:43:21.123Z,7.47
2022-08-03T18:46:45.468Z,7.95
2022-08-03T18:49:52.653Z,7.35
2022-08-03T18:52:46.071Z,7.53
2022-08-03T18:55:35.476Z,7.38
2022-08-03T18:58:17.913Z,6.75
2022-08-03T19:02:00.361Z,6.60
2022-08-03T19:04:15.549Z,7.03
2022-08-03T19:06:48.302Z,6.88
2022-08-03T19:09:32.845Z,7.55
2022-08-03T19:12:12.335Z,6.75
2022-08-03T19:15:00.265Z,5.93
2022-08-03T19:17:32.355Z,6.20
2022-08-03T19:20:04.061Z,6.20
2022-08-03T19:22:33.624Z,6.55
2022-08-03T19:25:03.939Z,7.18
2022-08-03T19:27:33.191Z,7.07
2022-08-03T19:30:19.799Z,9.75
2022-08-03T19:32:55.082Z,8.02
2022-08-03T19:35:51.595Z,8.48
2022-08-03T19:38:11.448Z,8.02
2022-08-03T19:40:44.442Z,7.97
2022-08-03T19:43:53.856Z,7.78
2022-08-03T19:46:31.716Z,8.65
2022-08-03T19:49:15.069Z,10.52
2022-08-03T19:52:01.138Z,12.80
2022-08-03T19:54:54.083Z,11.65
2022-08-03T19:57:27.336Z,12.68
2022-08-03T19:59:57.260Z,10.98
2022-08-03T20:02:27.103Z,11.18
2022-08-03T20:04:59.938Z,14.77
2022-08-03T20:07:32.025Z,16.42
2022-08-03T20:10:02.595Z,22.88
2022-08-03T20:12:34.395Z,19.23
2022-08-03T20:15:07.901Z,15.32
2022-08-03T20:17:57.068Z,13.13
2022-08-03T20:20:34.314Z,16.55
2022-08-03T20:23:07.540Z,19.90
2022-08-03T20:25:48.767Z,16.40
2022-08-03T20:29:01.078Z,18.52
2022-08-03T20:31:37.691Z,16.30
2022-08-03T20:34:06.586Z,13.02
2022-08-03T20:36:33.973Z,12.95
2022-08-03T20:39:02.321Z,12.50
2022-08-03T20:41:35.498Z,11.85
2022-08-03T20:44:04.583Z,11.95
2022-08-03T20:46:44.119Z,10.63
2022-08-03T20:49:22.944Z,8.57
2022-08-03T20:51:53.321Z,7.50
2022-08-03T20:54:30.971Z,8.15
2022-08-03T20:57:14.274Z,8.23
2022-08-03T20:59:50.369Z,7.40
2022-08-03T21:02:29.976Z,7.32
2022-08-03T21:05:03.702Z,8.73
2022-08-03T21:08:06.418Z,6.70
2022-08-03T21:10:38.420Z,7.32
2022-08-03T21:13:30.390Z,6.95
2022-08-03T21:16:11.969Z,6.90
2022-08-03T21:18:50.586Z,6.13
2022-08-03T21:21:22.504Z,6.72
2022-08-03T21:23:55.277Z,6.90
2022-08-03T21:26:25.502Z,6.85
2022-08-03T21:28:56.756Z,6.82
2022-08-03T21:31:26.553Z,6.95
2022-08-03T21:34:01.506Z,7.05
2022-08-03T21:36:34.644Z,7.00
2022-08-03T21:39:07.025Z,6.68
2022-08-03T21:41:36.393Z,8.07
2022-08-03T21:44:05.626Z,7.00
2022-08-03T21:46:39.698Z,9.23
2022-08-03T21:50:02.660Z,7.65
2022-08-03T21:51:59.838Z,7.13
2022-08-03T21:54:49.129Z,8.10
2022-08-03T21:57:25.676Z,7.28
2022-08-03T22:00:07.164Z,7.68
2022-08-03T22:02:35.801Z,8.18
2022-08-03T22:05:04.764Z,11.10
2022-08-03T22:07:34.608Z,8.52
2022-08-03T22:10:07.623Z,9.23
2022-08-03T22:12:35.965Z,9.40
2022-08-03T22:15:08.481Z,8.05
2022-08-03T22:17:54.796Z,7.82
2022-08-03T22:20:25.276Z,9.35
2022-08-03T22:22:57.059Z,9.30
2022-08-03T22:25:34.325Z,9.38
2022-08-03T22:28:09.576Z,9.10
2022-08-03T22:30:38.918Z,8.77
2022-08-03T22:33:11.145Z,9.68
2022-08-03T22:35:50.419Z,9.70
2022-08-03T22:38:19.214Z,9.15
2022-08-03T22:40:50.994Z,8.50
2022-08-03T22:43:26.823Z,9.00
2022-08-03T22:46:09.803Z,9.40
2022-08-03T22:48:40.761Z,9.90
2022-08-03T22:51:09.963Z,9.75
2022-08-03T22:53:39.150Z,9.88
2022-08-03T22:56:07.809Z,8.93
2022-08-03T22:58:35.071Z,9.80
2022-08-03T23:01:14.975Z,9.57
2022-08-03T23:03:59.163Z,9.52
2022-08-03T23:06:35.699Z,9.02
2022-08-03T23:09:11.128Z,9.85
2022-08-03T23:11:46.029Z,9.13
2022-08-03T23:14:18.588Z,9.63
2022-08-03T23:16:53.165Z,8.90
2022-08-03T23:19:26.242Z,9.23
2022-08-03T23:22:02.239Z,8.40
2022-08-03T23:24:38.579Z,9.80
2022-08-03T23:27:09.258Z,8.13
2022-08-03T23:29:39.742Z,8.70
2022-08-03T23:32:10.124Z,9.23
2022-08-03T23:34:59.501Z,9.02
2022-08-03T23:37:27.054Z,9.98
2022-08-03T23:39:57.458Z,9.23
2022-08-03T23:42:25.728Z,9.10
2022-08-03T23:44:59.504Z,8.55
2022-08-03T23:47:46.879Z,7.82
2022-08-03T23:50:15.432Z,8.10
2022-08-03T23:52:56.437Z,9.00
2022-08-03T23:56:04.059Z,8.05
2022-08-03T23:59:01.202Z,9.48
